Latest Weather Observations for Horn Island

IDQ60801

Issued at 1:35 pm EST Friday 25 April 2014 (issued every 30 minutes, with the page automatically refreshed every 10 minutes)

About weather observations | Map of weather stations | Latest weather observations for QLD | Other Formats
Station Details ID: 027058 Name: HORN ISLAND Lat: -10.58 Lon: 142.29 Height: 4.0 m
Data from the previous 72 hours. | See also: Recent months at Horn Island
Date/Time
EST
Temp
°C
App
Temp
°C
Dew
Point
Rel
Hum
%
Delta-T
°C
Wind Press
QNH
hPa
Press
MSL
hPa
Rain
since 9 am
mm
Dir
 
Spd
km/h
Gust
km/h
Spd
kts
Gust
kts
25/01:30pm 29.3 32.5 25.5 80 2.7 ENE 19 28 10 15 1008.2 - 0.0
25/01:00pm 29.4 32.6 25.8 81 2.6 E 20 26 11 14 1008.4 - 0.0
25/12:30pm 29.3 32.4 25.7 81 2.5 E 20 28 11 15 1008.9 - 0.0
25/12:00pm 29.4 32.9 26.0 82 2.4 ENE 19 26 10 14 1009.7 1009.7 0.0
25/11:30am 29.0 32.0 25.6 82 2.4 ENE 20 26 11 14 1010.3 - 0.0
25/11:01am 29.9 34.4 26.9 84 2.2 E 17 22 9 12 1010.7 - 0.0
25/11:00am 29.5 33.7 26.5 84 2.1 ENE 17 22 9 12 1010.7 - 0.0
25/10:30am 28.7 32.6 26.1 86 1.8 E 17 24 9 13 1010.6 - 0.0
25/10:00am 27.8 30.8 25.2 86 1.8 E 19 26 10 14 1010.6 - 0.0
25/09:30am 27.5 30.3 24.9 86 1.8 ENE 19 22 10 12 1010.7 - 0.0
25/09:00am 27.4 31.1 25.2 88 1.5 E 15 20 8 11 1010.6 1010.6 0.0
25/08:30am 26.8 30.3 24.8 89 1.4 ESE 15 20 8 11 1010.1 - 0.0
25/08:00am 26.3 30.6 24.9 92 1.0 ESE 11 15 6 8 1010.1 - 0.0
25/07:30am 25.3 29.6 24.3 94 0.7 E 9 13 5 7 1009.9 - 0.0
25/07:00am 24.7 29.0 23.7 94 0.7 ESE 7 7 4 4 1009.5 - 0.0
25/06:30am 24.5 28.3 23.5 94 0.7 ESE 9 11 5 6 1009.1 - 0.0
25/06:00am 24.3 28.3 23.1 93 0.8 SE 7 9 4 5 1008.6 1008.6 0.0
25/05:30am 24.6 28.4 23.4 93 0.8 SE 9 11 5 6 1008.4 - 0.0
25/05:00am 24.4 28.6 23.2 93 0.8 SSE 6 9 3 5 1008.3 - 0.0
25/04:30am 24.5 28.8 23.3 93 0.8 S 6 6 3 3 1008.1 - 0.0
25/04:00am 24.7 28.8 23.3 92 1.0 SSE 7 9 4 5 1007.9 - 0.0
25/03:30am 24.7 28.8 23.3 92 1.0 S 7 9 4 5 1008.0 - 0.0
25/03:00am 24.7 28.1 23.3 92 1.0 S 11 15 6 8 1008.3 1008.3 0.0
25/02:30am 24.6 27.0 23.0 91 1.1 S 15 20 8 11 1008.6 - 0.0
25/02:00am 24.7 26.3 22.9 90 1.2 SSE 19 26 10 14 1008.8 - 0.0
25/01:30am 25.3 26.7 23.5 90 1.2 S 22 32 12 17 1009.5 - 0.0
25/01:00am 25.2 27.5 23.4 90 1.2 S 17 28 9 15 1009.7 - 0.0
25/12:30am 24.8 27.2 22.9 89 1.3 S 15 17 8 9 1010.5 - 0.0
25/12:00am 24.7 27.7 22.6 88 1.4 S 11 17 6 9 1010.8 1010.8 0.0
 
Date/Time
EST
Temp
°C
App
Temp
°C
Dew
Point
Rel
Hum
%
Delta-T
°C
Wind Press
QNH
hPa
Press
MSL
hPa
Rain
since 9 am
mm
Dir
 
Spd
km/h
Gust
km/h
Spd
kts
Gust
kts
24/11:30pm 25.1 27.1 23.0 88 1.4 SSW 17 20 9 11 1010.8 - 0.0
24/11:00pm 25.8 27.7 23.5 87 1.6 SW 19 24 10 13 1010.7 - 0.0
24/10:30pm 26.8 31.2 24.5 87 1.6 S 9 11 5 6 1010.8 - 0.0
24/10:00pm 27.1 32.9 24.6 86 1.7 S 2 7 1 4 1010.8 - 0.0
24/09:30pm 27.3 31.4 24.6 85 1.9 ESE 11 17 6 9 1010.4 - 0.0
24/09:00pm 27.4 31.2 24.7 85 1.9 ESE 13 19 7 10 1009.8 1009.8 0.0
24/08:30pm 27.4 31.2 24.7 85 1.9 ESE 13 19 7 10 1009.6 - 0.0
24/08:00pm 27.5 30.4 24.5 84 2.1 E 17 20 9 11 1009.0 - 0.0
24/07:30pm 27.5 30.7 24.3 83 2.2 E 15 24 8 13 1008.7 - 0.0
24/07:00pm 27.4 31.3 24.3 83 2.1 E 11 15 6 8 1008.7 - 0.0
24/06:30pm 27.6 31.0 24.0 81 2.5 E 13 19 7 10 1008.2 - 0.0
24/06:00pm 28.0 31.5 24.2 80 2.6 E 13 19 7 10 1007.8 1007.8 0.0
24/05:30pm 28.4 31.3 24.4 79 2.8 E 17 22 9 12 1007.6 - 0.0
24/05:00pm 28.8 31.8 24.6 78 2.9 E 17 22 9 12 1007.3 - 0.0
24/04:30pm 29.1 31.5 24.6 76 3.1 E 20 26 11 14 1007.2 - 0.0
24/04:00pm 29.1 31.5 24.2 75 3.4 E 19 28 10 15 1007.0 - 0.0
24/03:30pm 29.6 32.2 24.9 76 3.3 E 20 30 11 16 1006.8 - 0.0
24/03:00pm 29.5 32.2 25.0 77 3.2 ENE 20 26 11 14 1007.0 1007.0 0.0
24/02:30pm 29.5 32.2 25.0 77 3.2 E 20 28 11 15 1007.5 - 0.0
24/02:00pm 30.0 32.5 25.3 76 3.3 E 22 30 12 16 1007.5 - 0.0
24/01:30pm 29.8 32.6 25.3 77 3.2 ENE 20 28 11 15 1008.0 - 0.0
24/01:00pm 29.9 32.8 25.4 77 3.2 ENE 20 30 11 16 1008.3 - 0.0
24/12:30pm 29.8 32.4 25.5 78 3.0 E 22 28 12 15 1008.6 - 0.0
24/12:00pm 29.7 32.6 25.4 78 3.0 E 20 28 11 15 1009.1 1009.1 0.0
24/11:30am 30.0 33.1 25.7 78 3.0 E 20 26 11 14 1009.5 - 0.0
24/11:00am 29.9 32.6 25.6 78 3.0 E 22 28 12 15 1009.8 - 0.0
24/10:30am 29.2 31.2 25.2 79 2.8 E 24 30 13 16 1010.0 - 0.0
24/10:00am 29.3 32.1 25.3 79 2.8 E 20 28 11 15 1010.1 - 0.0
24/09:30am 29.2 32.2 25.6 81 2.5 E 20 28 11 15 1010.0 - 0.0
24/09:00am 28.3 31.1 24.9 82 2.4 E 19 26 10 14 1009.9 1009.9 0.0
24/08:30am 28.9 32.1 25.5 82 2.4 E 19 28 10 15 1009.6 - 0.0
24/08:00am 28.3 31.7 25.3 84 2.1 E 17 24 9 13 1009.5 - 0.0
24/07:30am 27.7 30.5 24.9 85 2.0 E 19 26 10 14 1009.2 - 0.0
24/07:00am 27.2 30.5 24.5 85 1.9 E 15 19 8 10 1008.7 - 0.0
24/06:30am 27.2 30.1 24.5 85 1.9 E 17 24 9 13 1008.4 - 0.0
24/06:00am 27.2 30.2 24.6 86 1.8 E 17 24 9 13 1008.3 1008.3 0.0
24/05:30am 27.1 29.7 24.6 86 1.7 E 19 26 10 14 1008.0 - 0.0
24/05:00am 27.1 30.0 24.4 85 1.9 E 17 24 9 13 1007.9 - 0.0
24/04:30am 27.0 30.2 24.3 85 1.9 E 15 20 8 11 1008.0 - 0.0
24/04:00am 27.0 29.1 24.1 84 2.0 E 20 26 11 14 1007.9 - 0.0
24/03:30am 27.1 29.3 24.2 84 2.0 E 20 26 11 14 1007.8 - 0.0
24/03:00am 27.1 29.3 24.0 83 2.1 E 19 24 10 13 1007.9 1007.9 0.0
24/02:30am 27.2 29.3 24.1 83 2.1 E 20 30 11 16 1007.9 - 0.0
24/02:00am 27.2 29.6 24.3 84 2.0 E 19 26 10 14 1008.3 - 0.0
24/01:30am 27.1 29.5 24.2 84 2.0 E 19 24 10 13 1009.0 - 0.0
24/01:00am 27.2 29.5 24.5 85 1.9 ESE 20 24 11 13 1009.6 - 0.0
24/12:30am 27.2 29.8 24.6 86 1.8 ESE 19 24 10 13 1009.9 - 0.0
24/12:00am 27.2 30.6 24.6 86 1.8 ESE 15 20 8 11 1009.9 1009.9 0.0
 
Date/Time
EST
Temp
°C
App
Temp
°C
Dew
Point
Rel
Hum
%
Delta-T
°C
Wind Press
QNH
hPa
Press
MSL
hPa
Rain
since 9 am
mm
Dir
 
Spd
km/h
Gust
km/h
Spd
kts
Gust
kts
23/11:30pm 27.2 30.2 24.6 86 1.8 E 17 24 9 13 1010.1 - 0.0
23/11:00pm 27.3 30.7 24.7 86 1.8 ESE 15 20 8 11 1010.3 - 0.0
23/10:30pm 27.3 30.0 24.7 86 1.8 ESE 19 24 10 13 1010.2 - 0.0
23/10:00pm 27.2 29.6 24.6 86 1.8 ESE 20 28 11 15 1010.1 - 0.0
23/09:30pm 27.2 30.2 24.6 86 1.8 E 17 26 9 14 1010.0 - 0.0
23/09:00pm 27.0 30.3 24.5 86 1.7 ESE 15 20 8 11 1009.8 1009.8 0.0
23/08:30pm 27.1 30.0 24.4 85 1.9 ESE 17 22 9 12 1009.8 - 0.0
23/08:00pm 27.2 29.6 24.3 84 2.0 ESE 19 28 10 15 1009.2 - 0.0
23/07:30pm 27.3 29.7 24.2 83 2.1 ESE 19 28 10 15 1008.8 - 0.0
23/07:00pm 27.4 29.4 24.0 82 2.3 ESE 20 32 11 17 1008.3 - 0.0
23/06:30pm 27.6 29.6 24.0 81 2.5 ESE 20 30 11 16 1008.3 - 0.0
23/06:00pm 27.9 30.2 24.1 80 2.6 ESE 19 24 10 13 1008.2 1008.2 0.0
23/05:30pm 28.3 30.7 24.3 79 2.8 ESE 19 28 10 15 1007.6 - 0.0
23/05:00pm 28.9 31.1 24.9 79 2.8 ESE 22 32 12 17 1007.3 - 0.0
23/04:30pm 29.0 31.4 25.2 80 2.7 ESE 22 30 12 16 1007.3 - 0.0
23/04:00pm 29.2 31.6 25.2 79 2.8 E 22 28 12 15 1007.6 - 0.0
23/03:30pm 29.4 31.4 25.2 78 3.0 E 24 32 13 17 1007.7 - 0.0
23/03:00pm 29.8 32.2 25.8 79 2.8 ESE 24 32 13 17 1007.9 1007.9 0.0
23/02:30pm 29.9 32.9 26.1 80 2.7 ESE 22 30 12 16 1008.3 - 0.0
23/02:00pm 29.6 32.0 25.8 80 2.7 E 24 32 13 17 1008.6 - 0.0
23/01:30pm 29.6 31.6 25.8 80 2.7 E 26 33 14 18 1008.9 - 0.0
23/01:00pm 29.8 32.3 26.0 80 2.7 E 24 32 13 17 1009.2 - 0.0
23/12:30pm 29.9 32.5 26.1 80 2.7 E 24 35 13 19 1009.7 - 0.0
23/12:00pm 29.6 31.6 25.8 80 2.7 E 26 33 14 18 1009.7 1009.7 0.0
23/11:30am 29.3 30.9 25.7 81 2.5 E 28 35 15 19 1009.8 - 0.0
23/11:00am 29.6 32.3 26.2 82 2.4 E 24 32 13 17 1010.1 - 0.0
23/10:30am 29.7 32.4 26.3 82 2.4 E 24 35 13 19 1010.5 - 0.0
23/10:00am 29.1 31.6 25.9 83 2.3 E 24 33 13 18 1010.6 - 0.0
23/09:30am 29.0 31.5 26.0 84 2.1 E 24 32 13 17 1010.8 - 0.0
23/09:00am 28.7 31.2 25.9 85 2.0 E 24 33 13 18 1010.6 1010.6 1.2
23/08:30am 28.5 31.7 25.9 86 1.8 E 20 35 11 19 1010.7 - 1.2
23/08:00am 28.2 30.6 25.8 87 1.7 E 24 33 13 18 1010.3 - 1.2
23/07:30am 27.9 30.6 25.7 88 1.6 E 22 32 12 17 1010.2 - 1.2
23/07:00am 27.6 30.6 25.6 89 1.4 E 20 28 11 15 1010.0 - 1.2
23/06:30am 27.5 30.5 25.5 89 1.4 E 20 28 11 15 1009.4 - 1.2
23/06:00am 27.5 29.8 25.7 90 1.3 E 24 32 13 17 1009.0 1009.0 1.2
23/05:30am 27.3 29.9 25.5 90 1.3 E 22 32 12 17 1008.7 - 1.2
23/05:00am 27.3 30.4 25.7 91 1.1 E 20 30 11 16 1008.6 - 1.2
23/04:30am 27.2 30.4 25.8 92 1.0 E 20 28 11 15 1008.6 - 1.2
23/04:09am 27.1 30.4 25.7 92 1.0 E 19 28 10 15 1008.5 - 1.2
23/04:00am 27.2 30.2 25.6 91 1.1 E 20 32 11 17 1008.5 - 1.2
23/03:37am 27.2 30.8 25.6 91 1.1 E 17 24 9 13 1008.2 - 1.2
23/03:30am 27.2 30.2 25.6 91 1.1 E 20 26 11 14 1008.2 - 1.2
23/03:26am 27.2 29.9 25.6 91 1.1 E 22 32 12 17 1008.2 - 1.2
23/03:00am 27.3 30.2 25.9 92 1.0 E 22 30 12 16 1008.1 1008.1 1.2
23/02:30am 27.2 29.6 25.8 92 1.0 E 24 35 13 19 1008.3 - 1.0
23/02:18am 27.1 29.8 25.7 92 1.0 E 22 30 12 16 1008.3 - 1.0
23/02:12am 27.0 30.0 25.6 92 1.0 E 20 30 11 16 1008.4 - 1.0
23/02:07am 27.0 29.9 25.4 91 1.1 E 20 30 11 16 1008.5 - 1.0
23/02:00am 26.9 29.4 25.3 91 1.1 E 22 30 12 16 1008.6 - 1.0
23/01:47am 26.9 29.2 25.1 90 1.3 E 22 35 12 19 1008.8 - 0.6
23/01:30am 27.7 31.1 25.9 90 1.3 E 19 24 10 13 1009.1 - 0.2
23/01:00am 27.8 31.0 25.8 89 1.4 E 20 32 11 17 1009.5 - 0.2
23/12:35am 27.8 31.0 25.8 89 1.4 E 20 32 11 17 1009.6 - 0.2
23/12:30am 27.8 30.2 25.8 89 1.4 E 24 32 13 17 1009.6 - 0.2
23/12:29am 27.8 30.6 25.8 89 1.4 E 22 30 12 16 1009.6 - 0.2
23/12:16am 27.8 30.6 25.8 89 1.4 E 22 32 12 17 1010.0 - 0.2
23/12:10am 27.9 30.0 25.9 89 1.4 E 26 33 14 18 1010.0 - 0.2
23/12:00am 27.9 30.0 25.9 89 1.4 E 26 39 14 21 1010.1 1010.1 0.2
 
Date/Time
EST
Temp
°C
App
Temp
°C
Dew
Point
Rel
Hum
%
Delta-T
°C
Wind Press
QNH
hPa
Press
MSL
hPa
Rain
since 9 am
mm
Dir
 
Spd
km/h
Gust
km/h
Spd
kts
Gust
kts
22/11:47pm 27.9 30.4 25.9 89 1.4 E 24 33 13 18 1010.2 - 0.2
22/11:44pm 27.8 30.6 25.8 89 1.4 E 22 33 12 18 1010.2 - 0.2
22/11:30pm 27.8 30.7 26.0 90 1.3 E 22 30 12 16 1010.3 - 0.2
22/11:00pm 27.8 30.2 25.8 89 1.4 E 24 37 13 20 1010.4 - 0.2
22/10:30pm 27.8 29.8 25.8 89 1.4 ESE 26 37 14 20 1010.5 - 0.2
22/10:00pm 27.8 31.0 25.8 89 1.4 E 20 28 11 15 1010.7 - 0.2
22/09:30pm 27.9 29.4 26.1 90 1.3 ESE 30 39 16 21 1010.6 - 0.2
22/09:01pm 27.9 30.5 26.1 90 1.3 E 24 37 13 20 1010.3 - 0.2
22/09:00pm 28.0 30.7 26.2 90 1.3 E 24 37 13 20 1010.3 1010.3 0.2
22/08:52pm 27.9 30.1 26.1 90 1.3 E 26 39 14 21 1010.2 - 0.2
22/08:30pm 27.9 29.7 26.1 90 1.3 ESE 28 41 15 22 1010.0 - 0.2
22/08:00pm 27.9 30.5 26.1 90 1.3 E 24 32 13 17 1009.8 - 0.2
22/07:30pm 27.8 30.3 26.0 90 1.3 ESE 24 32 13 17 1009.5 - 0.2
22/07:25pm 27.7 30.2 25.9 90 1.3 ESE 24 32 13 17 1009.5 - 0.2
22/07:00pm 27.7 30.4 25.7 89 1.4 ESE 22 32 12 17 1009.3 - 0.2
22/06:30pm 28.0 30.3 25.6 87 1.7 E 24 35 13 19 1008.8 - 0.2
22/06:00pm 28.2 31.0 25.8 87 1.7 E 22 32 12 17 1008.7 1008.7 0.2
22/05:45pm 28.2 30.5 25.6 86 1.8 E 24 33 13 18 1008.7 - 0.2
22/05:30pm 28.3 30.9 25.5 85 2.0 E 22 32 12 17 1008.4 - 0.2
22/05:10pm 28.8 31.2 25.8 84 2.1 E 24 33 13 18 1008.4 - 0.2
22/05:00pm 29.2 31.7 26.0 83 2.3 E 24 33 13 18 1008.3 - 0.2
22/04:30pm 29.6 32.5 26.6 84 2.1 E 24 33 13 18 1008.0 - 0.2
22/04:27pm 29.4 31.8 26.4 84 2.1 E 26 33 14 18 1008.0 - 0.2
22/04:00pm 29.5 32.0 26.5 84 2.1 E 26 35 14 19 1007.7 - 0.2
22/03:32pm 29.7 32.3 26.7 84 2.2 E 26 35 14 19 1007.8 - 0.2
22/03:30pm 29.8 32.1 26.8 84 2.2 E 28 35 15 19 1007.8 - 0.2
22/03:00pm 29.7 31.9 26.7 84 2.2 E 28 37 15 20 1007.8 1007.8 0.2
22/02:30pm 29.8 32.6 27.0 85 2.0 E 26 37 14 20 1008.2 - 0.2
22/02:00pm 29.6 32.1 27.0 86 1.9 E 28 37 15 20 1008.6 - 0.2

Other Formats:

Comma delimited format used in spreadsheet applications
http://www.bom.gov.au/fwo/IDQ60801/IDQ60801.94174.axf

JavaScript Object Notation format (JSON) in row-major order
http://www.bom.gov.au/fwo/IDQ60801/IDQ60801.94174.json